createdAt,value
2018-09-25T00:02:09.066Z,1.60
2018-09-25T00:04:42.888Z,1.40
2018-09-25T00:07:16.490Z,1.50
2018-09-25T00:09:50.523Z,1.37
2018-09-25T00:12:24.186Z,1.67
2018-09-25T00:14:57.996Z,1.50
2018-09-25T00:17:31.774Z,1.33
2018-09-25T00:20:05.435Z,1.40
2018-09-25T00:22:39.206Z,1.67
2018-09-25T00:25:12.976Z,1.40
2018-09-25T00:27:46.765Z,1.40
2018-09-25T00:30:20.366Z,1.50
2018-09-25T00:32:54.110Z,1.37
2018-09-25T00:35:27.776Z,1.47
2018-09-25T00:38:01.665Z,1.50
2018-09-25T00:40:35.310Z,1.60
2018-09-25T00:43:08.950Z,1.70
2018-09-25T00:45:42.565Z,1.67
2018-09-25T00:48:16.322Z,1.70
2018-09-25T00:50:50.111Z,1.70
2018-09-25T00:53:23.616Z,1.73
2018-09-25T00:55:57.395Z,1.80
2018-09-25T00:58:31.268Z,1.60
2018-09-25T01:01:05.022Z,1.33
2018-09-25T01:03:38.696Z,1.70
2018-09-25T01:06:12.335Z,1.50
2018-09-25T01:08:45.922Z,1.80
2018-09-25T01:14:02.862Z,1.47
2018-09-25T01:16:36.579Z,1.73
2018-09-25T01:19:10.274Z,1.70
2018-09-25T01:21:44.103Z,1.50
2018-09-25T01:24:17.776Z,1.70
2018-09-25T01:26:51.553Z,1.57
2018-09-25T01:29:25.435Z,1.60
2018-09-25T01:31:59.346Z,1.70
2018-09-25T01:34:33.007Z,1.50
2018-09-25T01:37:06.615Z,1.50
2018-09-25T01:39:40.302Z,1.70
2018-09-25T01:42:14.108Z,1.63
2018-09-25T01:44:47.718Z,1.63
2018-09-25T01:47:21.518Z,1.80
2018-09-25T01:49:55.325Z,1.80
2018-09-25T01:52:29.053Z,1.87
2018-09-25T01:55:02.745Z,1.40
2018-09-25T01:57:36.434Z,1.63
2018-09-25T02:00:10.418Z,2.13
2018-09-25T02:02:44.023Z,1.80
2018-09-25T02:05:17.690Z,1.80
2018-09-25T02:07:51.478Z,1.70
2018-09-25T02:10:25.135Z,1.73
2018-09-25T02:12:58.719Z,2.00
2018-09-25T02:15:32.590Z,1.50
2018-09-25T02:18:06.166Z,1.80
2018-09-25T02:20:39.990Z,1.90
2018-09-25T02:23:13.681Z,1.70
2018-09-25T02:25:47.336Z,1.67
2018-09-25T02:28:21.089Z,1.70
2018-09-25T02:30:54.854Z,2.10
2018-09-25T02:33:29.709Z,1.70
2018-09-25T02:36:03.334Z,1.60
2018-09-25T02:38:36.938Z,1.60
2018-09-25T02:41:10.759Z,1.57
2018-09-25T02:43:44.555Z,2.47
2018-09-25T02:46:18.361Z,1.80
2018-09-25T02:48:52.106Z,1.87
2018-09-25T02:51:25.852Z,1.77
2018-09-25T02:53:59.485Z,1.67
2018-09-25T02:56:33.110Z,1.80
2018-09-25T02:59:06.715Z,1.63
2018-09-25T03:01:40.590Z,7.10
2018-09-25T03:04:14.282Z,2.07
2018-09-25T03:06:47.959Z,3.93
2018-09-25T03:09:21.770Z,2.63
2018-09-25T03:11:55.588Z,2.60
2018-09-25T03:14:29.468Z,2.50
2018-09-25T03:17:03.106Z,2.27
2018-09-25T03:19:36.728Z,2.00
2018-09-25T03:22:10.430Z,2.50
2018-09-25T03:24:44.307Z,2.00
2018-09-25T03:27:17.946Z,2.13
2018-09-25T03:29:52.110Z,1.83
2018-09-25T03:32:25.881Z,1.80
2018-09-25T03:34:59.626Z,1.70
2018-09-25T03:37:33.344Z,1.70
2018-09-25T03:40:07.106Z,2.00
2018-09-25T03:42:40.798Z,2.00
2018-09-25T03:45:14.396Z,2.20
2018-09-25T03:47:48.083Z,2.10
2018-09-25T03:50:21.559Z,2.03
2018-09-25T03:52:55.845Z,1.90
2018-09-25T03:55:29.395Z,2.33
2018-09-25T03:58:03.046Z,2.40
2018-09-25T04:00:36.798Z,2.20
2018-09-25T04:03:10.543Z,2.20
2018-09-25T04:05:44.518Z,2.20
2018-09-25T04:08:18.309Z,2.43
2018-09-25T04:10:52.123Z,2.20
2018-09-25T04:13:25.788Z,2.20
2018-09-25T04:15:59.550Z,2.57
2018-09-25T04:18:33.349Z,2.37
2018-09-25T04:21:07.074Z,2.10
2018-09-25T04:23:40.735Z,2.00
2018-09-25T04:26:14.572Z,2.43
2018-09-25T04:28:48.925Z,2.37
2018-09-25T04:31:22.906Z,2.13
2018-09-25T04:33:56.504Z,2.30
2018-09-25T04:36:30.103Z,2.60
2018-09-25T04:39:03.756Z,2.53
2018-09-25T04:41:37.390Z,2.20
2018-09-25T04:44:11.253Z,2.57
2018-09-25T04:46:45.016Z,2.33
2018-09-25T04:49:19.057Z,2.23
2018-09-25T04:51:52.878Z,2.33
2018-09-25T04:54:26.526Z,2.20
2018-09-25T04:57:00.305Z,2.10
2018-09-25T04:59:33.898Z,2.50
2018-09-25T05:02:07.567Z,2.13
2018-09-25T05:04:41.201Z,2.70
2018-09-25T05:07:14.863Z,2.70
2018-09-25T05:09:48.638Z,2.30
2018-09-25T05:12:22.263Z,2.43
2018-09-25T05:14:56.040Z,2.73
2018-09-25T05:17:29.654Z,2.00
2018-09-25T05:20:03.319Z,2.47
2018-09-25T05:22:36.916Z,2.57
2018-09-25T05:25:10.770Z,2.40
2018-09-25T05:27:44.417Z,2.43
2018-09-25T05:30:18.029Z,2.20
2018-09-25T05:32:52.289Z,2.17
2018-09-25T05:35:25.864Z,2.00
2018-09-25T05:37:59.477Z,2.30
2018-09-25T05:40:33.178Z,2.23
2018-09-25T05:43:07.641Z,2.47
2018-09-25T05:45:41.322Z,2.20
2018-09-25T05:48:15.058Z,2.33
2018-09-25T05:50:48.671Z,2.00
2018-09-25T05:53:22.294Z,2.30
2018-09-25T05:55:56.225Z,2.40
2018-09-25T05:58:29.959Z,2.37
2018-09-25T06:01:05.136Z,2.60
2018-09-25T06:03:39.166Z,2.83
2018-09-25T06:06:12.855Z,2.50
2018-09-25T06:08:46.506Z,2.80
2018-09-25T06:11:20.212Z,2.90
2018-09-25T06:13:53.841Z,2.87
2018-09-25T06:16:27.496Z,2.80
2018-09-25T06:19:01.076Z,2.90
2018-09-25T06:21:34.839Z,2.77
2018-09-25T06:24:08.756Z,3.07
2018-09-25T06:26:42.719Z,3.13
2018-09-25T06:29:16.424Z,2.93
2018-09-25T06:31:50.135Z,3.60
2018-09-25T06:34:23.843Z,3.33
2018-09-25T06:36:57.541Z,3.00
2018-09-25T06:39:31.193Z,2.83
2018-09-25T06:42:05.124Z,3.60
2018-09-25T06:44:38.676Z,3.27
2018-09-25T06:47:12.567Z,3.10
2018-09-25T06:49:46.307Z,2.93
2018-09-25T06:52:20.093Z,2.67
2018-09-25T06:54:53.793Z,2.50
2018-09-25T06:57:27.288Z,2.60
2018-09-25T07:00:01.054Z,2.43
2018-09-25T07:02:34.710Z,2.30
2018-09-25T07:05:08.310Z,2.53
2018-09-25T07:07:41.970Z,2.63
2018-09-25T07:10:15.663Z,3.13
2018-09-25T07:12:49.324Z,3.07
2018-09-25T07:15:23.063Z,2.83
2018-09-25T07:17:56.902Z,3.10
2018-09-25T07:20:30.538Z,2.93
2018-09-25T07:23:04.193Z,3.03
2018-09-25T07:25:37.969Z,3.17
2018-09-25T07:28:11.747Z,3.30
2018-09-25T07:30:45.434Z,3.30
2018-09-25T07:33:19.224Z,3.10
2018-09-25T07:35:53.025Z,3.00
2018-09-25T07:38:26.658Z,3.00
2018-09-25T07:41:00.254Z,3.30
2018-09-25T07:43:33.974Z,3.43
2018-09-25T07:46:07.586Z,3.60
2018-09-25T07:48:41.313Z,3.30
2018-09-25T07:51:15.102Z,3.43
2018-09-25T07:53:48.847Z,3.53
2018-09-25T07:56:22.406Z,3.10
2018-09-25T07:58:56.134Z,3.93
2018-09-25T08:01:29.902Z,3.43
2018-09-25T08:04:03.623Z,3.67
2018-09-25T08:06:37.187Z,3.53
2018-09-25T08:09:13.663Z,3.50
2018-09-25T08:11:47.268Z,3.10
2018-09-25T08:14:20.981Z,3.40
2018-09-25T08:16:54.623Z,2.93
2018-09-25T08:19:28.524Z,3.57
2018-09-25T08:22:02.091Z,3.27
2018-09-25T08:24:35.755Z,3.43
2018-09-25T08:27:09.379Z,2.67
2018-09-25T08:29:43.147Z,3.13
2018-09-25T08:32:16.883Z,3.00
2018-09-25T08:34:50.712Z,3.17
2018-09-25T08:37:24.545Z,3.10
2018-09-25T08:39:58.311Z,3.30
2018-09-25T08:42:32.078Z,3.03
2018-09-25T08:45:05.751Z,3.00
2018-09-25T08:47:39.511Z,3.20
2018-09-25T08:50:13.206Z,3.10
2018-09-25T08:52:46.847Z,2.40
2018-09-25T08:55:20.498Z,1.87
2018-09-25T08:57:54.292Z,1.77
2018-09-25T09:00:27.998Z,1.90
2018-09-25T09:03:01.799Z,1.63
2018-09-25T09:05:35.595Z,1.80
2018-09-25T09:08:09.381Z,1.73
2018-09-25T09:10:43.019Z,1.67
2018-09-25T09:13:16.686Z,2.00
2018-09-25T09:15:50.443Z,1.80
2018-09-25T09:18:24.274Z,1.90
2018-09-25T09:20:57.843Z,2.00
2018-09-25T09:23:31.683Z,1.80
2018-09-25T09:26:05.362Z,1.97
2018-09-25T09:28:38.993Z,1.90
2018-09-25T09:31:13.072Z,1.67
2018-09-25T09:33:46.561Z,1.90
2018-09-25T09:36:20.223Z,1.80
2018-09-25T09:38:54.038Z,1.90
2018-09-25T09:41:27.802Z,2.10
2018-09-25T09:44:01.531Z,1.90
2018-09-25T09:46:35.118Z,2.33
2018-09-25T09:49:08.758Z,2.30
2018-09-25T09:51:42.491Z,2.10
2018-09-25T09:54:16.073Z,1.97
2018-09-25T09:56:49.674Z,1.63
2018-09-25T09:59:23.455Z,1.63
2018-09-25T10:01:57.211Z,1.87
2018-09-25T10:04:31.068Z,1.80
2018-09-25T10:07:04.704Z,1.53
2018-09-25T10:09:38.528Z,1.90
2018-09-25T10:12:12.284Z,2.13
2018-09-25T10:14:45.966Z,2.10
2018-09-25T10:17:19.831Z,2.00
2018-09-25T10:19:53.595Z,1.90
2018-09-25T10:22:27.355Z,1.57
2018-09-25T10:25:01.012Z,1.70
2018-09-25T10:27:34.857Z,1.87
2018-09-25T10:30:08.543Z,1.90
2018-09-25T10:32:42.396Z,2.20
2018-09-25T10:35:16.032Z,1.50
2018-09-25T10:37:49.808Z,1.40
2018-09-25T10:40:23.492Z,1.67
2018-09-25T10:42:57.239Z,1.27
2018-09-25T10:45:30.907Z,1.40
2018-09-25T10:48:04.535Z,1.40
2018-09-25T10:50:38.107Z,1.63
2018-09-25T10:53:11.846Z,1.50
2018-09-25T10:55:45.642Z,1.40
2018-09-25T10:58:19.147Z,1.70
2018-09-25T11:00:52.786Z,1.50
2018-09-25T11:03:26.479Z,1.20
2018-09-25T11:06:00.023Z,1.00
2018-09-25T11:08:33.605Z,1.20
2018-09-25T11:11:07.235Z,1.30
2018-09-25T11:13:40.931Z,1.13
2018-09-25T11:16:14.551Z,1.40
2018-09-25T11:18:48.190Z,1.30
2018-09-25T11:21:22.104Z,1.10
2018-09-25T11:23:55.951Z,1.20
2018-09-25T11:26:29.594Z,1.40
2018-09-25T11:29:04.372Z,1.67
2018-09-25T11:31:38.082Z,1.40
2018-09-25T11:34:11.735Z,1.20
2018-09-25T11:36:45.507Z,1.93
2018-09-25T11:39:19.026Z,1.80
2018-09-25T11:41:52.699Z,1.50
2018-09-25T11:44:26.363Z,1.70
2018-09-25T11:47:00.115Z,1.50
2018-09-25T11:49:33.746Z,1.50
2018-09-25T11:52:07.514Z,1.50
2018-09-25T11:54:41.691Z,1.17
2018-09-25T11:57:15.300Z,1.37
2018-09-25T11:59:48.822Z,1.20
2018-09-25T12:02:22.575Z,1.30
2018-09-25T12:04:56.235Z,1.23
2018-09-25T12:07:29.946Z,1.10
2018-09-25T12:10:04.687Z,1.27
2018-09-25T12:12:38.507Z,1.17
2018-09-25T12:15:12.403Z,1.50
2018-09-25T12:17:46.098Z,1.30
2018-09-25T12:20:19.951Z,1.30
2018-09-25T12:22:53.711Z,1.10
2018-09-25T12:25:27.382Z,0.90
2018-09-25T12:28:01.112Z,1.13
2018-09-25T12:30:34.685Z,1.00
2018-09-25T12:33:08.467Z,1.00
2018-09-25T12:35:41.976Z,1.00
2018-09-25T12:38:15.588Z,1.10
2018-09-25T12:40:49.360Z,1.20
2018-09-25T12:43:22.994Z,1.10
2018-09-25T12:45:56.834Z,1.00
2018-09-25T12:48:30.539Z,1.10
2018-09-25T12:51:04.367Z,1.00
2018-09-25T12:53:37.971Z,0.80
2018-09-25T12:56:11.659Z,0.70
2018-09-25T12:58:45.508Z,1.00
2018-09-25T13:01:19.055Z,1.00
2018-09-25T13:03:52.714Z,1.27
2018-09-25T13:06:26.445Z,1.10
2018-09-25T13:09:00.068Z,1.10
2018-09-25T13:11:33.857Z,0.97
2018-09-25T13:14:07.696Z,1.10
2018-09-25T13:16:41.207Z,1.20
2018-09-25T13:19:14.751Z,1.20
2018-09-25T13:21:48.386Z,1.10
2018-09-25T13:24:22.194Z,1.13
2018-09-25T13:26:55.899Z,1.00
2018-09-25T13:29:29.757Z,1.33
2018-09-25T13:32:03.410Z,1.20
2018-09-25T13:34:37.118Z,1.20
2018-09-25T13:37:10.846Z,1.20
2018-09-25T13:39:44.488Z,1.30
2018-09-25T13:42:18.236Z,1.40
2018-09-25T13:44:52.303Z,1.00
2018-09-25T13:47:26.114Z,1.20
2018-09-25T13:49:59.995Z,1.13
2018-09-25T13:52:33.760Z,1.30
2018-09-25T13:55:07.383Z,1.20
2018-09-25T13:57:41.140Z,1.37
2018-09-25T14:00:14.822Z,1.30
2018-09-25T14:02:48.479Z,1.13
2018-09-25T14:05:22.342Z,1.40
2018-09-25T14:07:56.147Z,1.10
2018-09-25T14:10:29.858Z,1.20
2018-09-25T14:13:03.703Z,1.77
2018-09-25T14:15:37.466Z,1.00
2018-09-25T14:18:11.376Z,1.07
2018-09-25T14:20:45.038Z,1.10
2018-09-25T14:23:18.690Z,1.10
2018-09-25T14:25:52.319Z,0.97
2018-09-25T14:28:26.079Z,0.90
2018-09-25T14:30:59.715Z,0.97
2018-09-25T14:33:33.346Z,1.00
2018-09-25T14:36:06.994Z,0.90
2018-09-25T14:38:40.780Z,0.90
2018-09-25T14:41:14.514Z,1.00
2018-09-25T14:43:48.120Z,0.83
2018-09-25T14:46:21.743Z,0.90
2018-09-25T14:48:55.423Z,1.07
2018-09-25T14:51:29.223Z,1.00
2018-09-25T14:54:02.832Z,0.80
2018-09-25T14:56:36.543Z,0.90
2018-09-25T14:59:10.322Z,1.13
2018-09-25T15:01:43.851Z,0.83
2018-09-25T15:04:17.639Z,1.10
2018-09-25T15:06:58.659Z,0.93
2018-09-25T15:09:32.392Z,1.00
2018-09-25T15:12:06.094Z,1.00
2018-09-25T15:14:39.778Z,0.90
2018-09-25T15:17:13.531Z,0.90
2018-09-25T15:19:47.244Z,1.10
2018-09-25T15:22:21.235Z,1.23
2018-09-25T15:24:54.502Z,1.00
2018-09-25T15:27:28.358Z,1.07
2018-09-25T15:30:02.017Z,1.07
2018-09-25T15:32:35.706Z,1.00
2018-09-25T15:35:09.545Z,0.90
2018-09-25T15:37:43.254Z,1.00
2018-09-25T15:40:16.815Z,1.00
2018-09-25T15:42:50.338Z,1.03
2018-09-25T15:45:23.977Z,0.93
2018-09-25T15:47:57.686Z,1.00
2018-09-25T15:50:31.391Z,0.80
2018-09-25T15:53:05.106Z,1.10
2018-09-25T15:55:38.863Z,0.93
2018-09-25T15:58:12.452Z,0.97
2018-09-25T16:00:46.130Z,1.03
2018-09-25T16:03:19.808Z,1.10
2018-09-25T16:05:53.481Z,1.13
2018-09-25T16:08:27.118Z,1.10
2018-09-25T16:11:00.883Z,1.10
2018-09-25T16:13:34.427Z,1.27
2018-09-25T16:16:08.099Z,1.27
2018-09-25T16:18:41.895Z,1.03
2018-09-25T16:21:15.732Z,1.33
2018-09-25T16:23:49.426Z,1.50
2018-09-25T16:26:23.111Z,1.40
2018-09-25T16:28:56.717Z,1.30
2018-09-25T16:31:30.343Z,1.70
2018-09-25T16:34:04.157Z,1.53
2018-09-25T16:36:38.010Z,1.40
2018-09-25T16:39:14.319Z,1.40
2018-09-25T16:41:48.624Z,1.60
2018-09-25T16:44:22.982Z,1.10
2018-09-25T16:46:56.767Z,1.03
2018-09-25T16:49:30.595Z,1.20
2018-09-25T16:52:04.347Z,1.40
2018-09-25T16:54:38.049Z,1.10
2018-09-25T16:57:11.659Z,1.33
2018-09-25T16:59:45.473Z,1.20
2018-09-25T17:02:19.101Z,1.40
2018-09-25T17:04:52.826Z,1.27
2018-09-25T17:07:26.559Z,1.40
2018-09-25T17:10:00.266Z,1.50
2018-09-25T17:12:33.978Z,1.67
2018-09-25T17:15:07.595Z,1.70
2018-09-25T17:17:41.351Z,1.63
2018-09-25T17:20:14.991Z,1.50
2018-09-25T17:22:49.201Z,1.50
2018-09-25T17:25:22.880Z,1.90
2018-09-25T17:27:56.655Z,1.63
2018-09-25T17:30:30.363Z,1.57
2018-09-25T17:33:04.036Z,1.40
2018-09-25T17:35:37.643Z,1.57
2018-09-25T17:38:11.475Z,1.20
2018-09-25T17:40:45.072Z,1.30
2018-09-25T17:43:18.942Z,1.53
2018-09-25T17:45:52.618Z,1.33
2018-09-25T17:48:26.153Z,1.40
2018-09-25T17:50:59.850Z,1.43
2018-09-25T17:53:33.677Z,1.50
2018-09-25T17:56:07.684Z,1.50
2018-09-25T17:58:41.483Z,1.60
2018-09-25T18:01:15.612Z,1.83
2018-09-25T18:03:49.290Z,1.57
2018-09-25T18:06:23.617Z,1.80
2018-09-25T18:08:57.278Z,1.57
2018-09-25T18:11:30.895Z,1.80
2018-09-25T18:14:04.578Z,1.90
2018-09-25T18:16:38.757Z,1.80
2018-09-25T18:19:12.638Z,2.70
2018-09-25T18:21:46.388Z,2.23
2018-09-25T18:24:20.000Z,2.17
2018-09-25T18:26:53.878Z,3.50
2018-09-25T18:29:27.963Z,3.03
2018-09-25T18:32:01.949Z,3.00
2018-09-25T18:34:35.543Z,2.03
2018-09-25T18:37:09.195Z,1.97
2018-09-25T18:39:42.902Z,2.37
2018-09-25T18:42:16.558Z,2.40
2018-09-25T18:44:50.194Z,2.20
2018-09-25T18:47:23.818Z,2.17
2018-09-25T18:49:57.419Z,1.90
2018-09-25T18:52:31.126Z,1.80
2018-09-25T18:55:04.878Z,2.30
2018-09-25T18:57:38.747Z,2.00
2018-09-25T19:00:13.047Z,2.30
2018-09-25T19:02:46.747Z,2.20
2018-09-25T19:05:20.428Z,2.47
2018-09-25T19:07:54.134Z,2.00
2018-09-25T19:10:27.952Z,2.13
2018-09-25T19:13:01.703Z,2.53
2018-09-25T19:15:35.415Z,2.40
2018-09-25T19:18:09.184Z,2.47
2018-09-25T19:20:42.958Z,2.43
2018-09-25T19:23:16.738Z,2.47
2018-09-25T19:25:50.495Z,2.07
2018-09-25T19:28:24.131Z,2.40
2018-09-25T19:30:57.951Z,2.23
2018-09-25T19:33:31.516Z,2.47
2018-09-25T19:36:05.241Z,3.10
2018-09-25T19:38:38.770Z,2.50
2018-09-25T19:41:12.454Z,2.40
2018-09-25T19:43:45.998Z,2.53
2018-09-25T19:46:19.598Z,2.53
2018-09-25T19:48:53.354Z,2.70
2018-09-25T19:51:26.866Z,2.27
2018-09-25T19:54:00.499Z,2.47
2018-09-25T19:56:33.999Z,2.93
2018-09-25T19:59:07.815Z,2.57
2018-09-25T20:01:41.465Z,2.93
2018-09-25T20:04:15.070Z,2.83
2018-09-25T20:06:48.699Z,10.87
2018-09-25T20:09:22.361Z,16.37
2018-09-25T20:11:56.287Z,6.30
2018-09-25T20:14:30.112Z,3.97
2018-09-25T20:17:03.918Z,3.60
2018-09-25T20:19:37.551Z,4.10
2018-09-25T20:22:13.174Z,4.77
2018-09-25T20:24:46.811Z,3.72
2018-09-25T20:27:20.442Z,3.70
2018-09-25T20:29:54.106Z,4.77
2018-09-25T20:32:27.712Z,4.80
2018-09-25T20:35:01.517Z,3.80
2018-09-25T20:37:35.416Z,5.50
2018-09-25T20:40:09.043Z,7.13
2018-09-25T20:42:42.664Z,5.23
2018-09-25T20:45:16.238Z,4.47
2018-09-25T20:47:50.111Z,4.40
2018-09-25T20:50:23.743Z,3.33
2018-09-25T20:52:57.370Z,2.50
2018-09-25T20:55:31.223Z,2.70
2018-09-25T20:58:04.850Z,2.50
2018-09-25T21:00:38.610Z,2.30
2018-09-25T21:03:12.389Z,2.30
2018-09-25T21:05:46.207Z,2.20
2018-09-25T21:08:19.952Z,2.00
2018-09-25T21:10:53.596Z,2.17
2018-09-25T21:13:27.432Z,2.17
2018-09-25T21:16:01.175Z,1.97
2018-09-25T21:18:34.995Z,1.97
2018-09-25T21:21:08.718Z,1.80
2018-09-25T21:23:42.522Z,2.00
2018-09-25T21:26:16.123Z,2.77
2018-09-25T21:28:49.635Z,2.33
2018-09-25T21:31:23.395Z,2.30
2018-09-25T21:33:57.151Z,2.40
2018-09-25T21:36:30.966Z,2.10
2018-09-25T21:39:04.778Z,2.23
2018-09-25T21:41:38.302Z,2.30
2018-09-25T21:44:11.848Z,2.20
2018-09-25T21:46:45.503Z,2.00
2018-09-25T21:49:19.110Z,2.20
2018-09-25T21:51:53.464Z,2.07
2018-09-25T21:54:27.219Z,2.03
2018-09-25T21:57:01.185Z,1.90
2018-09-25T21:59:34.646Z,2.23
2018-09-25T22:02:08.415Z,2.20
2018-09-25T22:04:41.933Z,1.90
2018-09-25T22:07:15.523Z,1.83
2018-09-25T22:09:49.146Z,2.13
2018-09-25T22:12:22.807Z,2.13
2018-09-25T22:14:56.435Z,1.97
2018-09-25T22:17:30.068Z,2.07
2018-09-25T22:20:03.627Z,2.07
2018-09-25T22:22:37.422Z,2.10
2018-09-25T22:25:11.036Z,2.07
2018-09-25T22:27:44.763Z,2.33
2018-09-25T22:30:18.339Z,2.00
2018-09-25T22:32:52.114Z,2.20
2018-09-25T22:35:25.755Z,2.20
2018-09-25T22:37:59.462Z,2.10
2018-09-25T22:40:33.288Z,2.20
2018-09-25T22:43:07.366Z,2.30
2018-09-25T22:45:41.038Z,1.93
2018-09-25T22:48:14.707Z,2.03
2018-09-25T22:50:48.284Z,1.90
2018-09-25T22:53:22.072Z,2.07
2018-09-25T22:55:55.710Z,1.90
2018-09-25T22:58:29.314Z,1.90
2018-09-25T23:01:02.981Z,1.73
2018-09-25T23:03:36.667Z,1.93
2018-09-25T23:06:10.259Z,2.17
2018-09-25T23:08:43.903Z,1.93
2018-09-25T23:11:17.552Z,1.70
2018-09-25T23:13:51.407Z,1.60
2018-09-25T23:16:25.006Z,1.93
2018-09-25T23:18:58.647Z,1.80
2018-09-25T23:21:32.386Z,1.70
2018-09-25T23:24:06.170Z,1.83
2018-09-25T23:26:40.059Z,1.80
2018-09-25T23:29:13.682Z,1.83
2018-09-25T23:31:47.310Z,1.90
2018-09-25T23:34:20.891Z,1.80
2018-09-25T23:36:54.503Z,1.77
2018-09-25T23:39:59.290Z,1.70
2018-09-25T23:42:35.264Z,2.00
2018-09-25T23:45:09.119Z,1.60
2018-09-25T23:47:42.646Z,1.70
2018-09-25T23:50:19.154Z,1.87
2018-09-25T23:52:56.906Z,2.00
2018-09-25T23:55:33.015Z,1.87
2018-09-25T23:58:05.578Z,1.90
